createdAt,value
2023-03-29T00:02:02.133Z,59.28
2023-03-29T00:04:28.870Z,61.82
2023-03-29T00:06:55.875Z,64.51
2023-03-29T00:09:23.458Z,66.01
2023-03-29T00:11:50.154Z,67.84
2023-03-29T00:14:16.913Z,70.49
2023-03-29T00:16:44.985Z,71.52
2023-03-29T00:19:11.817Z,73.31
2023-03-29T00:21:38.451Z,75.83
2023-03-29T00:24:05.516Z,76.05
2023-03-29T00:26:32.183Z,76.03
2023-03-29T00:28:58.969Z,76.42
2023-03-29T00:31:26.509Z,77.22
2023-03-29T00:33:53.210Z,76.98
2023-03-29T00:36:19.913Z,77.72
2023-03-29T00:38:46.793Z,80.85
2023-03-29T00:41:13.964Z,81.84
2023-03-29T00:43:51.975Z,81.30
2023-03-29T00:46:18.692Z,80.64
2023-03-29T00:48:45.491Z,81.76
2023-03-29T00:51:14.936Z,81.08
2023-03-29T00:53:44.089Z,83.54
2023-03-29T00:56:14.335Z,82.60
2023-03-29T00:58:58.544Z,82.00
2023-03-29T01:01:34.276Z,78.89
2023-03-29T01:04:18.136Z,79.39
2023-03-29T01:07:00.902Z,79.40
2023-03-29T01:09:30.758Z,83.20
2023-03-29T01:12:02.762Z,80.65
2023-03-29T01:14:35.445Z,81.45
2023-03-29T01:17:02.144Z,84.46
2023-03-29T01:19:34.400Z,87.35
2023-03-29T01:22:06.612Z,86.41
2023-03-29T01:24:47.173Z,85.59
2023-03-29T01:27:42.699Z,85.88
2023-03-29T01:30:14.827Z,87.04
2023-03-29T01:32:51.373Z,86.55
2023-03-29T01:35:41.019Z,85.31
2023-03-29T01:38:18.473Z,85.33
2023-03-29T01:40:45.263Z,85.00
2023-03-29T01:43:45.766Z,87.26
2023-03-29T01:46:21.663Z,88.35
2023-03-29T01:48:54.842Z,88.25
2023-03-29T01:51:41.944Z,86.55
2023-03-29T01:54:15.184Z,86.98
2023-03-29T01:56:44.121Z,85.79
2023-03-29T01:59:16.106Z,86.41
2023-03-29T02:01:49.438Z,85.70
2023-03-29T02:04:21.856Z,84.17
2023-03-29T02:06:50.418Z,83.79
2023-03-29T02:09:17.904Z,83.48
2023-03-29T02:11:45.521Z,83.55
2023-03-29T02:14:13.881Z,84.64
2023-03-29T02:16:40.566Z,85.64
2023-03-29T02:19:09.098Z,85.82
2023-03-29T02:21:51.907Z,86.50
2023-03-29T02:24:21.249Z,86.59
2023-03-29T02:26:48.848Z,86.28
2023-03-29T02:29:15.857Z,87.15
2023-03-29T02:31:53.760Z,86.67
2023-03-29T02:34:29.740Z,88.49
2023-03-29T02:37:06.845Z,87.90
2023-03-29T02:39:35.974Z,89.28
2023-03-29T02:42:05.865Z,90.81
2023-03-29T02:44:37.267Z,89.50
2023-03-29T02:47:13.251Z,88.49
2023-03-29T02:49:39.966Z,88.58
2023-03-29T02:52:12.360Z,90.24
2023-03-29T02:54:43.297Z,90.78
2023-03-29T02:57:11.189Z,89.30
2023-03-29T02:59:38.700Z,88.54
2023-03-29T03:02:05.850Z,88.49
2023-03-29T03:04:35.671Z,88.27
2023-03-29T03:07:05.082Z,88.54
2023-03-29T03:09:31.899Z,88.88
2023-03-29T03:11:58.588Z,87.53
2023-03-29T03:14:25.422Z,88.70
2023-03-29T03:16:52.908Z,89.69
2023-03-29T03:19:20.045Z,88.81
2023-03-29T03:21:47.131Z,87.25
2023-03-29T03:24:13.892Z,86.39
2023-03-29T03:26:40.504Z,87.09
2023-03-29T03:29:07.195Z,86.53
2023-03-29T03:31:33.890Z,86.03
2023-03-29T03:34:01.255Z,85.35
2023-03-29T03:36:31.438Z,85.50
2023-03-29T03:38:58.025Z,85.16
2023-03-29T03:41:26.173Z,84.45
2023-03-29T03:43:52.991Z,84.39
2023-03-29T03:46:19.739Z,83.71
2023-03-29T03:48:47.044Z,83.37
2023-03-29T03:51:14.118Z,83.77
2023-03-29T03:53:40.822Z,83.32
2023-03-29T03:56:10.648Z,84.31
2023-03-29T03:58:38.064Z,83.58
2023-03-29T04:01:05.602Z,83.53
2023-03-29T04:03:32.702Z,83.22
2023-03-29T04:06:01.246Z,83.48
2023-03-29T04:08:28.020Z,83.02
2023-03-29T04:10:56.247Z,83.11
2023-03-29T04:13:23.593Z,83.06
2023-03-29T04:15:54.176Z,83.58
2023-03-29T04:18:21.704Z,82.95
2023-03-29T04:20:48.962Z,83.54
2023-03-29T04:23:16.044Z,83.04
2023-03-29T04:25:42.748Z,83.07
2023-03-29T04:28:10.965Z,82.83
2023-03-29T04:30:37.733Z,83.36
2023-03-29T04:33:04.513Z,83.80
2023-03-29T04:35:31.659Z,84.12
2023-03-29T04:37:58.408Z,83.51
2023-03-29T04:40:25.107Z,83.75
2023-03-29T04:42:51.772Z,84.26
2023-03-29T04:45:18.618Z,83.99
2023-03-29T04:47:46.430Z,84.20
2023-03-29T04:50:13.956Z,83.27
2023-03-29T04:52:40.966Z,83.75
2023-03-29T04:55:08.506Z,83.65
2023-03-29T04:57:35.348Z,83.45
2023-03-29T05:00:02.449Z,83.72
2023-03-29T05:02:32.427Z,83.40
2023-03-29T05:04:59.400Z,83.45
2023-03-29T05:07:26.155Z,83.75
2023-03-29T05:09:52.773Z,83.50
2023-03-29T05:12:19.564Z,82.93
2023-03-29T05:14:46.158Z,82.94
2023-03-29T05:17:12.788Z,83.05
2023-03-29T05:19:39.450Z,83.06
2023-03-29T05:22:06.728Z,82.60
2023-03-29T05:24:33.374Z,82.02
2023-03-29T05:27:00.150Z,81.79
2023-03-29T05:29:27.202Z,82.51
2023-03-29T05:31:54.182Z,81.66
2023-03-29T05:34:20.889Z,82.20
2023-03-29T05:36:49.066Z,81.89
2023-03-29T05:39:15.777Z,82.24
2023-03-29T05:41:42.341Z,81.96
2023-03-29T05:44:09.261Z,82.32
2023-03-29T05:46:35.957Z,82.45
2023-03-29T05:49:02.733Z,81.97
2023-03-29T05:51:29.408Z,81.59
2023-03-29T05:53:56.296Z,80.81
2023-03-29T05:56:22.985Z,80.73
2023-03-29T05:58:49.632Z,81.00
2023-03-29T06:01:19.487Z,80.65
2023-03-29T06:03:47.494Z,80.22
2023-03-29T06:06:16.388Z,80.65
2023-03-29T06:08:44.486Z,80.37
2023-03-29T06:11:13.413Z,80.21
2023-03-29T06:13:42.220Z,79.65
2023-03-29T06:16:10.929Z,79.41
2023-03-29T06:18:41.236Z,80.27
2023-03-29T06:21:09.332Z,78.50
2023-03-29T06:23:36.593Z,79.50
2023-03-29T06:26:03.620Z,78.69
2023-03-29T06:28:30.685Z,78.77
2023-03-29T06:31:02.954Z,78.26
2023-03-29T06:33:32.400Z,78.48
2023-03-29T06:35:59.399Z,76.59
2023-03-29T06:38:28.464Z,76.06
2023-03-29T06:41:07.106Z,77.44
2023-03-29T06:43:34.820Z,76.95
2023-03-29T06:46:02.243Z,77.43
2023-03-29T06:48:29.494Z,76.84
2023-03-29T06:50:56.493Z,76.79
2023-03-29T06:53:23.307Z,76.89
2023-03-29T06:55:51.991Z,77.19
2023-03-29T06:58:19.048Z,74.86
2023-03-29T07:00:45.910Z,76.05
2023-03-29T07:03:20.021Z,75.20
2023-03-29T07:05:47.920Z,75.26
2023-03-29T07:08:16.625Z,74.44
2023-03-29T07:10:47.524Z,74.36
2023-03-29T07:13:15.662Z,73.37
2023-03-29T07:15:43.855Z,74.35
2023-03-29T07:18:12.761Z,72.51
2023-03-29T07:20:40.597Z,72.83
2023-03-29T07:23:09.195Z,71.29
2023-03-29T07:25:37.187Z,72.04
2023-03-29T07:28:04.564Z,72.65
2023-03-29T07:30:32.507Z,71.50
2023-03-29T07:33:00.582Z,70.89
2023-03-29T07:35:27.992Z,72.50
2023-03-29T07:37:58.485Z,72.83
2023-03-29T07:40:26.427Z,69.06
2023-03-29T07:42:55.708Z,70.66
2023-03-29T07:45:26.727Z,70.67
2023-03-29T07:47:59.558Z,70.49
2023-03-29T07:50:27.294Z,70.04
2023-03-29T07:52:54.293Z,69.93
2023-03-29T07:55:21.038Z,69.86
2023-03-29T07:57:49.357Z,70.70
2023-03-29T08:00:17.213Z,69.68
2023-03-29T08:02:49.830Z,69.02
2023-03-29T08:05:26.010Z,70.77
2023-03-29T08:07:56.295Z,71.23
2023-03-29T08:10:23.354Z,69.46
2023-03-29T08:12:52.405Z,70.05
2023-03-29T08:15:19.392Z,70.17
2023-03-29T08:17:46.138Z,69.31
2023-03-29T08:20:16.143Z,70.04
2023-03-29T08:22:42.807Z,70.04
2023-03-29T08:25:12.452Z,67.97
2023-03-29T08:27:39.814Z,69.92
2023-03-29T08:30:09.514Z,69.58
2023-03-29T08:32:37.549Z,68.77
2023-03-29T08:35:06.760Z,68.75
2023-03-29T08:37:33.565Z,68.98
2023-03-29T08:40:01.141Z,69.54
2023-03-29T08:42:46.530Z,69.00
2023-03-29T08:45:50.928Z,69.37
2023-03-29T08:48:28.952Z,69.55
2023-03-29T08:51:03.291Z,67.14
2023-03-29T08:53:41.531Z,70.27
2023-03-29T08:56:14.373Z,69.75
2023-03-29T08:58:42.396Z,68.56
2023-03-29T09:01:11.558Z,69.20
2023-03-29T09:03:48.102Z,67.21
2023-03-29T09:06:16.575Z,69.88
2023-03-29T09:08:47.914Z,67.59
2023-03-29T09:11:23.260Z,69.32
2023-03-29T09:13:58.936Z,68.63
2023-03-29T09:16:34.606Z,68.31
2023-03-29T09:19:19.100Z,68.46
2023-03-29T09:21:59.719Z,68.74
2023-03-29T09:24:42.726Z,66.75
2023-03-29T09:27:16.797Z,67.23
2023-03-29T09:30:11.489Z,66.97
2023-03-29T09:32:48.561Z,66.30
2023-03-29T09:35:24.425Z,65.03
2023-03-29T09:37:54.015Z,67.03
2023-03-29T09:40:31.919Z,65.34
2023-03-29T09:43:01.287Z,65.36
2023-03-29T09:45:28.010Z,66.22
2023-03-29T09:47:59.200Z,65.67
2023-03-29T09:50:47.508Z,63.84
2023-03-29T09:53:19.574Z,62.80
2023-03-29T09:55:50.488Z,65.89
2023-03-29T09:58:22.072Z,65.65
2023-03-29T10:00:50.148Z,64.45
2023-03-29T10:03:37.043Z,65.27
2023-03-29T10:06:06.397Z,65.39
2023-03-29T10:08:37.239Z,66.41
2023-03-29T10:11:09.746Z,66.91
2023-03-29T10:13:46.137Z,66.65
2023-03-29T10:16:29.779Z,65.79
2023-03-29T10:18:56.591Z,64.86
2023-03-29T10:21:23.850Z,66.52
2023-03-29T10:23:58.728Z,66.76
2023-03-29T10:26:28.584Z,65.64
2023-03-29T10:28:57.408Z,65.78
2023-03-29T10:31:25.395Z,65.62
2023-03-29T10:34:00.035Z,66.94
2023-03-29T10:36:27.840Z,65.24
2023-03-29T10:38:58.870Z,65.29
2023-03-29T10:41:27.401Z,63.76
2023-03-29T10:43:54.389Z,65.60
2023-03-29T10:46:30.364Z,66.05
2023-03-29T10:48:59.459Z,63.78
2023-03-29T10:51:30.185Z,64.83
2023-03-29T10:54:00.410Z,65.62
2023-03-29T10:56:29.966Z,65.09
2023-03-29T10:59:15.088Z,64.62
2023-03-29T11:02:15.692Z,63.67
2023-03-29T11:05:01.046Z,63.72
2023-03-29T11:07:42.722Z,61.95
2023-03-29T11:10:33.971Z,64.22
2023-03-29T11:13:00.566Z,64.14
2023-03-29T11:15:42.773Z,63.84
2023-03-29T11:18:26.349Z,63.99
2023-03-29T11:20:52.877Z,63.52
2023-03-29T11:23:26.133Z,62.52
2023-03-29T11:26:05.353Z,61.26
2023-03-29T11:28:39.246Z,65.01
2023-03-29T11:31:15.126Z,64.04
2023-03-29T11:33:56.995Z,63.64
2023-03-29T11:36:35.999Z,62.37
2023-03-29T11:39:13.225Z,61.88
2023-03-29T11:41:44.959Z,63.28
2023-03-29T11:44:18.585Z,62.45
2023-03-29T11:46:54.681Z,63.77
2023-03-29T11:49:44.660Z,63.40
2023-03-29T11:52:40.955Z,61.72
2023-03-29T11:55:18.193Z,63.43
2023-03-29T11:58:00.446Z,61.29
2023-03-29T12:00:32.904Z,63.94
2023-03-29T12:03:13.321Z,61.88
2023-03-29T12:05:45.690Z,62.46
2023-03-29T12:08:21.442Z,62.80
2023-03-29T12:11:14.411Z,61.72
2023-03-29T12:13:58.587Z,61.95
2023-03-29T12:16:46.896Z,62.05
2023-03-29T12:19:22.019Z,61.00
2023-03-29T12:21:49.701Z,60.54
2023-03-29T12:24:18.958Z,61.61
2023-03-29T12:27:12.420Z,58.94
2023-03-29T12:29:52.325Z,58.42
2023-03-29T12:32:21.801Z,59.29
2023-03-29T12:35:10.294Z,60.88
2023-03-29T12:37:59.017Z,59.95
2023-03-29T12:40:28.403Z,59.74
2023-03-29T12:43:01.365Z,61.23
2023-03-29T12:45:51.077Z,60.09
2023-03-29T12:48:27.374Z,60.13
2023-03-29T12:51:03.839Z,59.87
2023-03-29T12:53:50.605Z,60.30
2023-03-29T12:56:23.714Z,62.61
2023-03-29T12:59:06.631Z,61.51
2023-03-29T13:01:42.767Z,61.32
2023-03-29T13:04:18.510Z,60.28
2023-03-29T13:06:53.634Z,61.12
2023-03-29T13:09:24.590Z,61.11
2023-03-29T13:12:17.800Z,60.98
2023-03-29T13:14:49.801Z,62.19
2023-03-29T13:17:45.138Z,61.13
2023-03-29T13:20:33.284Z,63.29
2023-03-29T13:23:24.629Z,62.68
2023-03-29T13:25:51.344Z,62.09
2023-03-29T13:28:35.900Z,63.31
2023-03-29T13:31:11.688Z,62.60
2023-03-29T13:33:59.496Z,63.14
2023-03-29T13:36:59.744Z,62.31
2023-03-29T13:39:36.688Z,62.46
2023-03-29T13:42:29.014Z,62.05
2023-03-29T13:45:13.264Z,61.01
2023-03-29T13:47:58.408Z,60.89
2023-03-29T13:50:51.563Z,61.79
2023-03-29T13:53:26.941Z,63.46
2023-03-29T13:56:28.422Z,62.07
2023-03-29T13:59:05.658Z,62.60
2023-03-29T14:02:00.654Z,61.81
2023-03-29T14:04:32.253Z,62.33
2023-03-29T14:07:00.865Z,61.87
2023-03-29T14:09:31.817Z,62.99
2023-03-29T14:12:00.880Z,62.40
2023-03-29T14:14:30.606Z,61.97
2023-03-29T14:16:57.746Z,61.49
2023-03-29T14:19:38.297Z,61.54
2023-03-29T14:22:13.729Z,61.93
2023-03-29T14:24:48.205Z,60.41
2023-03-29T14:27:15.876Z,60.06
2023-03-29T14:29:45.774Z,60.14
2023-03-29T14:32:18.354Z,58.42
2023-03-29T14:34:50.230Z,59.25
2023-03-29T14:37:28.683Z,58.54
2023-03-29T14:39:56.551Z,59.17
2023-03-29T14:42:28.913Z,58.76
2023-03-29T14:45:04.422Z,58.06
2023-03-29T14:47:32.817Z,57.49
2023-03-29T14:50:04.015Z,59.29
2023-03-29T14:52:32.120Z,58.79
2023-03-29T14:55:02.108Z,59.66
2023-03-29T14:57:34.364Z,59.78
2023-03-29T15:00:08.275Z,59.21
2023-03-29T15:02:34.997Z,58.62
2023-03-29T15:05:25.423Z,60.66
2023-03-29T15:07:56.052Z,60.47
2023-03-29T15:10:23.786Z,59.77
2023-03-29T15:12:51.180Z,59.39
2023-03-29T15:15:18.227Z,58.32
2023-03-29T15:17:51.807Z,59.66
2023-03-29T15:20:29.207Z,58.39
2023-03-29T15:23:15.425Z,60.16
2023-03-29T15:25:58.487Z,59.62
2023-03-29T15:28:32.671Z,60.51
2023-03-29T15:31:20.161Z,60.84
2023-03-29T15:33:47.084Z,59.63
2023-03-29T15:36:15.270Z,61.72
2023-03-29T15:38:45.112Z,61.58
2023-03-29T15:41:14.053Z,61.66
2023-03-29T15:43:41.574Z,61.63
2023-03-29T15:46:08.871Z,61.46
2023-03-29T15:48:35.541Z,61.78
2023-03-29T15:51:05.696Z,60.78
2023-03-29T15:53:33.531Z,61.81
2023-03-29T15:56:02.553Z,62.22
2023-03-29T15:58:32.088Z,62.72
2023-03-29T16:01:33.999Z,62.44
2023-03-29T16:04:06.084Z,62.05
2023-03-29T16:06:33.968Z,62.11
2023-03-29T16:09:00.982Z,62.13
2023-03-29T16:11:28.449Z,62.26
2023-03-29T16:13:56.554Z,62.55
2023-03-29T16:16:23.810Z,62.72
2023-03-29T16:18:50.726Z,62.91
2023-03-29T16:21:19.807Z,63.03
2023-03-29T16:23:47.425Z,63.61
2023-03-29T16:26:16.651Z,62.92
2023-03-29T16:28:43.344Z,63.83
2023-03-29T16:31:11.912Z,63.26
2023-03-29T16:33:39.918Z,63.84
2023-03-29T16:36:07.518Z,63.34
2023-03-29T16:38:34.275Z,64.17
2023-03-29T16:41:01.672Z,64.39
2023-03-29T16:43:28.585Z,64.88
2023-03-29T16:45:55.280Z,64.51
2023-03-29T16:48:21.965Z,65.00
2023-03-29T16:50:49.554Z,64.31
2023-03-29T16:53:18.596Z,64.89
2023-03-29T16:55:46.305Z,64.74
2023-03-29T16:58:13.387Z,65.28
2023-03-29T17:00:40.931Z,65.29
2023-03-29T17:03:08.104Z,65.32
2023-03-29T17:05:41.603Z,66.17
2023-03-29T17:08:10.238Z,66.11
2023-03-29T17:10:39.521Z,66.14
2023-03-29T17:13:06.770Z,66.09
2023-03-29T17:15:33.898Z,66.50
2023-03-29T17:18:01.139Z,66.54
2023-03-29T17:20:28.033Z,66.95
2023-03-29T17:22:56.096Z,67.28
2023-03-29T17:25:23.808Z,66.83
2023-03-29T17:27:51.426Z,67.04
2023-03-29T17:30:18.211Z,67.12
2023-03-29T17:32:45.851Z,66.70
2023-03-29T17:35:13.276Z,67.08
2023-03-29T17:37:40.266Z,67.45
2023-03-29T17:40:13.504Z,67.56
2023-03-29T17:42:41.738Z,67.50
2023-03-29T17:45:10.316Z,67.93
2023-03-29T17:47:40.562Z,68.25
2023-03-29T17:50:09.564Z,68.41
2023-03-29T17:52:36.946Z,68.18
2023-03-29T17:55:03.742Z,68.59
2023-03-29T17:57:30.434Z,68.08
2023-03-29T17:59:57.022Z,68.81
2023-03-29T18:02:24.601Z,68.82
2023-03-29T18:04:51.835Z,69.00
2023-03-29T18:07:19.099Z,68.67
2023-03-29T18:09:46.262Z,68.60
2023-03-29T18:12:12.917Z,68.83
2023-03-29T18:14:39.557Z,68.37
2023-03-29T18:17:06.598Z,68.33
2023-03-29T18:19:33.469Z,68.53
2023-03-29T18:22:00.874Z,68.39
2023-03-29T18:24:27.680Z,68.96
2023-03-29T18:26:54.518Z,69.36
2023-03-29T18:29:21.108Z,69.73
2023-03-29T18:31:47.865Z,70.23
2023-03-29T18:34:14.643Z,69.82
2023-03-29T18:36:41.518Z,69.88
2023-03-29T18:39:08.143Z,70.54
2023-03-29T18:41:37.295Z,70.27
2023-03-29T18:44:04.617Z,70.62
2023-03-29T18:46:31.983Z,70.50
2023-03-29T18:49:00.002Z,70.25
2023-03-29T18:51:28.203Z,70.08
2023-03-29T18:53:55.993Z,70.53
2023-03-29T18:56:23.141Z,70.23
2023-03-29T18:58:49.970Z,70.26
2023-03-29T19:01:16.740Z,70.39
2023-03-29T19:03:43.685Z,70.35
2023-03-29T19:06:11.907Z,70.96
2023-03-29T19:08:41.301Z,71.12
2023-03-29T19:11:11.324Z,71.33
2023-03-29T19:13:38.092Z,70.36
2023-03-29T19:16:05.255Z,70.84
2023-03-29T19:18:32.453Z,70.87
2023-03-29T19:20:59.173Z,70.60
2023-03-29T19:23:27.626Z,71.42
2023-03-29T19:25:56.180Z,70.92
2023-03-29T19:28:23.914Z,71.08
2023-03-29T19:30:50.747Z,71.02
2023-03-29T19:33:17.664Z,70.89
2023-03-29T19:35:44.442Z,71.28
2023-03-29T19:38:11.732Z,72.15
2023-03-29T19:40:38.704Z,71.89
2023-03-29T19:43:05.404Z,72.74
2023-03-29T19:45:32.058Z,72.69
2023-03-29T19:48:02.845Z,72.88
2023-03-29T19:50:31.674Z,72.92
2023-03-29T19:52:58.614Z,72.99
2023-03-29T19:55:26.508Z,73.49
2023-03-29T19:57:53.158Z,73.61
2023-03-29T20:00:24.466Z,74.16
2023-03-29T20:02:52.597Z,75.04
2023-03-29T20:05:20.311Z,75.11
2023-03-29T20:07:47.072Z,75.54
2023-03-29T20:10:13.884Z,75.80
2023-03-29T20:12:40.720Z,75.44
2023-03-29T20:15:07.901Z,75.88
2023-03-29T20:17:35.643Z,75.54
2023-03-29T20:20:08.244Z,75.62
2023-03-29T20:22:35.009Z,75.55
2023-03-29T20:25:01.647Z,74.61
2023-03-29T20:27:29.464Z,74.80
2023-03-29T20:29:56.152Z,74.32
2023-03-29T20:32:22.943Z,75.00
2023-03-29T20:34:49.734Z,74.39
2023-03-29T20:37:16.364Z,73.44
2023-03-29T20:39:43.213Z,73.87
2023-03-29T20:42:09.876Z,73.33
2023-03-29T20:44:36.677Z,72.70
2023-03-29T20:47:04.279Z,72.95
2023-03-29T20:49:37.162Z,73.22
2023-03-29T20:52:05.992Z,73.35
2023-03-29T20:54:33.351Z,73.88
2023-03-29T20:57:00.106Z,73.88
2023-03-29T20:59:27.571Z,73.83
2023-03-29T21:01:54.327Z,73.96
2023-03-29T21:04:21.059Z,73.74
2023-03-29T21:06:50.807Z,73.40
2023-03-29T21:09:19.351Z,73.74
2023-03-29T21:11:45.999Z,74.33
2023-03-29T21:14:12.684Z,73.57
2023-03-29T21:16:42.019Z,74.03
2023-03-29T21:19:09.531Z,74.61
2023-03-29T21:21:36.197Z,73.98
2023-03-29T21:24:04.523Z,73.94
2023-03-29T21:26:31.336Z,74.02
2023-03-29T21:28:57.978Z,74.16
2023-03-29T21:31:24.998Z,74.13
2023-03-29T21:33:53.155Z,74.82
2023-03-29T21:36:19.946Z,74.00
2023-03-29T21:38:46.626Z,74.41
2023-03-29T21:41:13.801Z,73.97
2023-03-29T21:43:41.149Z,74.04
2023-03-29T21:46:08.138Z,74.24
2023-03-29T21:48:34.997Z,74.41
2023-03-29T21:51:02.111Z,74.29
2023-03-29T21:53:28.914Z,74.19
2023-03-29T21:55:55.511Z,74.49
2023-03-29T21:58:22.356Z,74.22
2023-03-29T22:00:49.022Z,74.42
2023-03-29T22:03:16.749Z,74.24
2023-03-29T22:05:44.431Z,74.29
2023-03-29T22:08:11.766Z,74.50
2023-03-29T22:10:41.319Z,74.43
2023-03-29T22:13:08.937Z,73.96
2023-03-29T22:15:39.040Z,73.72
2023-03-29T22:18:05.829Z,73.65
2023-03-29T22:20:34.198Z,73.97
2023-03-29T22:23:00.824Z,73.61
2023-03-29T22:25:27.723Z,73.48
2023-03-29T22:27:54.379Z,73.14
2023-03-29T22:30:24.107Z,72.78
2023-03-29T22:32:50.849Z,72.92
2023-03-29T22:35:17.653Z,72.27
2023-03-29T22:37:44.300Z,72.77
2023-03-29T22:40:12.212Z,72.70
2023-03-29T22:42:38.955Z,72.63
2023-03-29T22:45:06.576Z,72.78
2023-03-29T22:47:33.401Z,72.62
2023-03-29T22:50:00.040Z,72.50
2023-03-29T22:52:26.681Z,72.22
2023-03-29T22:54:53.325Z,72.10
2023-03-29T22:57:19.998Z,72.12
2023-03-29T22:59:46.688Z,72.60
2023-03-29T23:02:13.289Z,72.31
2023-03-29T23:04:40.114Z,72.41
2023-03-29T23:07:06.795Z,72.37
2023-03-29T23:09:33.588Z,72.02
2023-03-29T23:12:01.169Z,72.39
2023-03-29T23:14:28.066Z,72.22
2023-03-29T23:16:54.721Z,72.35
2023-03-29T23:19:21.349Z,72.28
2023-03-29T23:21:47.984Z,72.10
2023-03-29T23:24:18.842Z,71.49
2023-03-29T23:26:45.930Z,71.18
2023-03-29T23:29:13.692Z,71.22
2023-03-29T23:31:40.346Z,71.30
2023-03-29T23:34:07.045Z,71.05
2023-03-29T23:36:33.636Z,70.25
2023-03-29T23:39:00.368Z,69.16
2023-03-29T23:41:30.597Z,70.16
2023-03-29T23:43:57.780Z,69.82
2023-03-29T23:46:24.798Z,70.10
2023-03-29T23:48:51.791Z,69.58
2023-03-29T23:51:22.933Z,69.49
2023-03-29T23:53:50.035Z,69.57
2023-03-29T23:56:16.967Z,69.58
2023-03-29T23:58:44.482Z,68.50
